sensor_id;sensor_type;location;lat;lon;timestamp;temperature;humidity
20946;DHT22;10632;51.276;7.116;2023-08-31T00:00:54;11.80;99.90
20946;DHT22;10632;51.276;7.116;2023-08-31T00:03:22;11.80;99.90
20946;DHT22;10632;51.276;7.116;2023-08-31T00:05:49;11.80;99.90
20946;DHT22;10632;51.276;7.116;2023-08-31T00:08:16;11.80;99.90
20946;DHT22;10632;51.276;7.116;2023-08-31T00:10:44;11.80;99.90
20946;DHT22;10632;51.276;7.116;2023-08-31T00:13:10;11.80;99.90
20946;DHT22;10632;51.276;7.116;2023-08-31T00:15:37;11.80;99.90
20946;DHT22;10632;51.276;7.116;2023-08-31T00:18:06;11.80;99.90
20946;DHT22;10632;51.276;7.116;2023-08-31T00:20:34;11.80;99.90
20946;DHT22;10632;51.276;7.116;2023-08-31T00:23:01;11.80;99.90
20946;DHT22;10632;51.276;7.116;2023-08-31T00:25:29;11.80;99.90
20946;DHT22;10632;51.276;7.116;2023-08-31T00:27:56;11.80;99.90
20946;DHT22;10632;51.276;7.116;2023-08-31T00:30:30;11.80;99.90
20946;DHT22;10632;51.276;7.116;2023-08-31T00:32:57;11.80;99.90
20946;DHT22;10632;51.276;7.116;2023-08-31T00:35:25;11.80;99.90
20946;DHT22;10632;51.276;7.116;2023-08-31T00:37:54;11.80;99.90
20946;DHT22;10632;51.276;7.116;2023-08-31T00:40:22;11.80;99.90
20946;DHT22;10632;51.276;7.116;2023-08-31T00:42:49;11.80;99.90
20946;DHT22;10632;51.276;7.116;2023-08-31T00:45:20;11.80;99.90
20946;DHT22;10632;51.276;7.116;2023-08-31T00:47:48;11.80;99.90
20946;DHT22;10632;51.276;7.116;2023-08-31T00:50:16;11.80;99.90
20946;DHT22;10632;51.276;7.116;2023-08-31T00:52:43;11.80;99.90
20946;DHT22;10632;51.276;7.116;2023-08-31T00:55:12;11.80;99.90
20946;DHT22;10632;51.276;7.116;2023-08-31T00:57:39;11.80;99.90
20946;DHT22;10632;51.276;7.116;2023-08-31T01:00:07;11.70;99.90
20946;DHT22;10632;51.276;7.116;2023-08-31T01:02:42;11.70;99.90
20946;DHT22;10632;51.276;7.116;2023-08-31T01:05:22;11.70;99.90
20946;DHT22;10632;51.276;7.116;2023-08-31T01:07:56;11.70;99.90
20946;DHT22;10632;51.276;7.116;2023-08-31T01:10:38;11.80;99.90
20946;DHT22;10632;51.276;7.116;2023-08-31T01:13:12;11.70;99.90
20946;DHT22;10632;51.276;7.116;2023-08-31T01:15:42;11.70;99.90
20946;DHT22;10632;51.276;7.116;2023-08-31T01:18:14;11.70;99.90
20946;DHT22;10632;51.276;7.116;2023-08-31T01:20:46;11.70;99.90
20946;DHT22;10632;51.276;7.116;2023-08-31T01:23:19;11.70;99.90
20946;DHT22;10632;51.276;7.116;2023-08-31T01:25:49;11.70;99.90
20946;DHT22;10632;51.276;7.116;2023-08-31T01:28:16;11.70;99.90
20946;DHT22;10632;51.276;7.116;2023-08-31T01:30:42;11.70;99.90
20946;DHT22;10632;51.276;7.116;2023-08-31T01:33:09;11.70;99.90
20946;DHT22;10632;51.276;7.116;2023-08-31T01:35:42;11.60;99.90
20946;DHT22;10632;51.276;7.116;2023-08-31T01:38:10;11.70;99.90
20946;DHT22;10632;51.276;7.116;2023-08-31T01:40:47;11.60;99.90
20946;DHT22;10632;51.276;7.116;2023-08-31T01:43:18;11.60;99.90
20946;DHT22;10632;51.276;7.116;2023-08-31T01:45:47;11.60;99.90
20946;DHT22;10632;51.276;7.116;2023-08-31T01:48:14;11.60;99.90
20946;DHT22;10632;51.276;7.116;2023-08-31T01:50:41;11.60;99.90
20946;DHT22;10632;51.276;7.116;2023-08-31T01:53:09;11.60;99.90
20946;DHT22;10632;51.276;7.116;2023-08-31T01:55:36;11.60;99.90
20946;DHT22;10632;51.276;7.116;2023-08-31T01:58:03;11.60;99.90
20946;DHT22;10632;51.276;7.116;2023-08-31T02:00:32;11.60;99.90
20946;DHT22;10632;51.276;7.116;2023-08-31T02:03:00;11.60;99.90
20946;DHT22;10632;51.276;7.116;2023-08-31T02:05:30;11.60;99.90
20946;DHT22;10632;51.276;7.116;2023-08-31T02:07:57;11.50;99.90
20946;DHT22;10632;51.276;7.116;2023-08-31T02:10:23;11.50;99.90
20946;DHT22;10632;51.276;7.116;2023-08-31T02:12:51;11.50;99.90
20946;DHT22;10632;51.276;7.116;2023-08-31T02:15:18;11.50;99.90
20946;DHT22;10632;51.276;7.116;2023-08-31T02:17:47;11.40;99.90
20946;DHT22;10632;51.276;7.116;2023-08-31T02:20:13;11.40;99.90
20946;DHT22;10632;51.276;7.116;2023-08-31T02:22:40;11.40;99.90
20946;DHT22;10632;51.276;7.116;2023-08-31T02:25:08;11.40;99.90
20946;DHT22;10632;51.276;7.116;2023-08-31T02:27:34;11.30;99.90
20946;DHT22;10632;51.276;7.116;2023-08-31T02:30:01;11.30;99.90
20946;DHT22;10632;51.276;7.116;2023-08-31T02:32:30;11.30;99.90
20946;DHT22;10632;51.276;7.116;2023-08-31T02:34:58;11.30;99.90
20946;DHT22;10632;51.276;7.116;2023-08-31T02:37:25;11.30;99.90
20946;DHT22;10632;51.276;7.116;2023-08-31T02:39:52;11.30;99.90
20946;DHT22;10632;51.276;7.116;2023-08-31T02:42:18;11.30;99.90
20946;DHT22;10632;51.276;7.116;2023-08-31T02:44:45;11.30;99.90
20946;DHT22;10632;51.276;7.116;2023-08-31T02:47:12;11.30;99.90
20946;DHT22;10632;51.276;7.116;2023-08-31T02:49:39;11.30;99.90
20946;DHT22;10632;51.276;7.116;2023-08-31T02:52:08;11.30;99.90
20946;DHT22;10632;51.276;7.116;2023-08-31T02:54:34;11.30;99.90
20946;DHT22;10632;51.276;7.116;2023-08-31T02:57:01;11.30;99.90
20946;DHT22;10632;51.276;7.116;2023-08-31T02:59:28;11.30;99.90
20946;DHT22;10632;51.276;7.116;2023-08-31T03:01:55;11.30;99.90
20946;DHT22;10632;51.276;7.116;2023-08-31T03:04:22;11.30;99.90
20946;DHT22;10632;51.276;7.116;2023-08-31T03:06:49;11.20;99.90
20946;DHT22;10632;51.276;7.116;2023-08-31T03:09:17;11.20;99.90
20946;DHT22;10632;51.276;7.116;2023-08-31T03:11:45;11.20;99.90
20946;DHT22;10632;51.276;7.116;2023-08-31T03:14:12;11.20;99.90
20946;DHT22;10632;51.276;7.116;2023-08-31T03:16:39;11.20;99.90
20946;DHT22;10632;51.276;7.116;2023-08-31T03:19:06;11.20;99.90
20946;DHT22;10632;51.276;7.116;2023-08-31T03:21:32;11.20;99.90
20946;DHT22;10632;51.276;7.116;2023-08-31T03:23:59;11.20;99.90
20946;DHT22;10632;51.276;7.116;2023-08-31T03:26:28;11.20;99.90
20946;DHT22;10632;51.276;7.116;2023-08-31T03:28:55;11.30;99.90
20946;DHT22;10632;51.276;7.116;2023-08-31T03:31:22;11.20;99.90
20946;DHT22;10632;51.276;7.116;2023-08-31T03:33:52;11.20;99.90
20946;DHT22;10632;51.276;7.116;2023-08-31T03:36:19;11.20;99.90
20946;DHT22;10632;51.276;7.116;2023-08-31T03:38:46;11.30;99.90
20946;DHT22;10632;51.276;7.116;2023-08-31T03:41:13;11.20;99.90
20946;DHT22;10632;51.276;7.116;2023-08-31T03:43:41;11.20;99.90
20946;DHT22;10632;51.276;7.116;2023-08-31T03:46:09;11.20;99.90
20946;DHT22;10632;51.276;7.116;2023-08-31T03:48:35;11.20;99.90
20946;DHT22;10632;51.276;7.116;2023-08-31T03:51:02;11.20;99.90
20946;DHT22;10632;51.276;7.116;2023-08-31T03:53:29;11.20;99.90
20946;DHT22;10632;51.276;7.116;2023-08-31T03:55:56;11.20;99.90
20946;DHT22;10632;51.276;7.116;2023-08-31T03:58:23;11.20;99.90
20946;DHT22;10632;51.276;7.116;2023-08-31T04:00:51;11.20;99.90
20946;DHT22;10632;51.276;7.116;2023-08-31T04:03:18;11.20;99.90
20946;DHT22;10632;51.276;7.116;2023-08-31T04:05:45;11.20;99.90
20946;DHT22;10632;51.276;7.116;2023-08-31T04:08:12;11.20;99.90
20946;DHT22;10632;51.276;7.116;2023-08-31T04:10:39;11.20;99.90
20946;DHT22;10632;51.276;7.116;2023-08-31T04:13:06;11.20;99.90
20946;DHT22;10632;51.276;7.116;2023-08-31T04:15:33;11.20;99.90
20946;DHT22;10632;51.276;7.116;2023-08-31T04:18:01;11.20;99.90
20946;DHT22;10632;51.276;7.116;2023-08-31T04:20:28;11.20;99.90
20946;DHT22;10632;51.276;7.116;2023-08-31T04:22:55;11.10;99.90
20946;DHT22;10632;51.276;7.116;2023-08-31T04:25:22;11.20;99.90
20946;DHT22;10632;51.276;7.116;2023-08-31T04:27:48;11.20;99.90
20946;DHT22;10632;51.276;7.116;2023-08-31T04:30:15;11.20;99.90
20946;DHT22;10632;51.276;7.116;2023-08-31T04:32:43;11.20;99.90
20946;DHT22;10632;51.276;7.116;2023-08-31T04:35:11;11.20;99.90
20946;DHT22;10632;51.276;7.116;2023-08-31T04:37:38;11.20;99.90
20946;DHT22;10632;51.276;7.116;2023-08-31T04:40:05;11.20;99.90
20946;DHT22;10632;51.276;7.116;2023-08-31T04:42:34;11.20;99.90
20946;DHT22;10632;51.276;7.116;2023-08-31T04:45:01;11.20;99.90
20946;DHT22;10632;51.276;7.116;2023-08-31T04:47:28;11.20;99.90
20946;DHT22;10632;51.276;7.116;2023-08-31T04:49:55;11.20;99.90
20946;DHT22;10632;51.276;7.116;2023-08-31T04:52:25;11.20;99.90
20946;DHT22;10632;51.276;7.116;2023-08-31T04:54:52;11.20;99.90
20946;DHT22;10632;51.276;7.116;2023-08-31T04:57:19;11.20;99.90
20946;DHT22;10632;51.276;7.116;2023-08-31T04:59:46;11.20;99.90
20946;DHT22;10632;51.276;7.116;2023-08-31T05:02:13;11.20;99.90
20946;DHT22;10632;51.276;7.116;2023-08-31T05:04:40;11.20;99.90
20946;DHT22;10632;51.276;7.116;2023-08-31T05:07:07;11.20;99.90
20946;DHT22;10632;51.276;7.116;2023-08-31T05:09:35;11.20;99.90
20946;DHT22;10632;51.276;7.116;2023-08-31T05:12:03;11.20;99.90
20946;DHT22;10632;51.276;7.116;2023-08-31T05:14:30;11.20;99.90
20946;DHT22;10632;51.276;7.116;2023-08-31T05:16:57;11.20;99.90
20946;DHT22;10632;51.276;7.116;2023-08-31T05:19:24;11.20;99.90
20946;DHT22;10632;51.276;7.116;2023-08-31T05:21:50;11.20;99.90
20946;DHT22;10632;51.276;7.116;2023-08-31T05:24:17;11.20;99.90
20946;DHT22;10632;51.276;7.116;2023-08-31T05:26:46;11.20;99.90
20946;DHT22;10632;51.276;7.116;2023-08-31T05:29:13;11.20;99.90
20946;DHT22;10632;51.276;7.116;2023-08-31T05:31:39;11.20;99.90
20946;DHT22;10632;51.276;7.116;2023-08-31T05:34:06;11.20;99.90
20946;DHT22;10632;51.276;7.116;2023-08-31T05:36:33;11.20;99.90
20946;DHT22;10632;51.276;7.116;2023-08-31T05:39:00;11.20;99.90
20946;DHT22;10632;51.276;7.116;2023-08-31T05:41:27;11.30;99.90
20946;DHT22;10632;51.276;7.116;2023-08-31T05:43:55;11.30;99.90
20946;DHT22;10632;51.276;7.116;2023-08-31T05:46:22;11.30;99.90
20946;DHT22;10632;51.276;7.116;2023-08-31T05:48:49;11.30;99.90
20946;DHT22;10632;51.276;7.116;2023-08-31T05:51:17;11.30;99.90
20946;DHT22;10632;51.276;7.116;2023-08-31T05:53:44;11.30;99.90
20946;DHT22;10632;51.276;7.116;2023-08-31T05:56:11;11.30;99.90
20946;DHT22;10632;51.276;7.116;2023-08-31T05:58:38;11.40;99.90
20946;DHT22;10632;51.276;7.116;2023-08-31T06:01:06;11.40;99.90
20946;DHT22;10632;51.276;7.116;2023-08-31T06:03:33;11.40;99.90
20946;DHT22;10632;51.276;7.116;2023-08-31T06:06:01;11.40;99.90
20946;DHT22;10632;51.276;7.116;2023-08-31T06:08:29;11.40;99.90
20946;DHT22;10632;51.276;7.116;2023-08-31T06:10:56;11.40;99.90
20946;DHT22;10632;51.276;7.116;2023-08-31T06:13:23;11.40;99.90
20946;DHT22;10632;51.276;7.116;2023-08-31T06:15:50;11.40;99.90
20946;DHT22;10632;51.276;7.116;2023-08-31T06:18:18;11.40;99.90
20946;DHT22;10632;51.276;7.116;2023-08-31T06:20:44;11.50;99.90
20946;DHT22;10632;51.276;7.116;2023-08-31T06:23:13;11.40;99.90
20946;DHT22;10632;51.276;7.116;2023-08-31T06:25:40;11.40;99.90
20946;DHT22;10632;51.276;7.116;2023-08-31T06:28:07;11.40;99.90
20946;DHT22;10632;51.276;7.116;2023-08-31T06:30:37;11.50;99.90
20946;DHT22;10632;51.276;7.116;2023-08-31T06:33:04;11.50;99.90
20946;DHT22;10632;51.276;7.116;2023-08-31T06:35:32;11.50;99.90
20946;DHT22;10632;51.276;7.116;2023-08-31T06:37:59;11.50;99.90
20946;DHT22;10632;51.276;7.116;2023-08-31T06:40:26;11.50;99.90
20946;DHT22;10632;51.276;7.116;2023-08-31T06:42:53;11.60;99.90
20946;DHT22;10632;51.276;7.116;2023-08-31T06:45:20;11.60;99.90
20946;DHT22;10632;51.276;7.116;2023-08-31T06:47:46;11.60;99.90
20946;DHT22;10632;51.276;7.116;2023-08-31T06:50:13;11.60;99.90
20946;DHT22;10632;51.276;7.116;2023-08-31T06:52:41;11.60;99.90
20946;DHT22;10632;51.276;7.116;2023-08-31T06:55:09;11.70;99.90
20946;DHT22;10632;51.276;7.116;2023-08-31T06:57:37;11.70;99.90
20946;DHT22;10632;51.276;7.116;2023-08-31T07:00:05;11.70;99.90
20946;DHT22;10632;51.276;7.116;2023-08-31T07:02:34;11.70;99.90
20946;DHT22;10632;51.276;7.116;2023-08-31T07:05:01;11.70;99.90
20946;DHT22;10632;51.276;7.116;2023-08-31T07:07:29;11.70;99.90
20946;DHT22;10632;51.276;7.116;2023-08-31T07:09:57;11.70;99.90
20946;DHT22;10632;51.276;7.116;2023-08-31T07:12:25;11.70;99.90
20946;DHT22;10632;51.276;7.116;2023-08-31T07:14:52;11.70;99.90
20946;DHT22;10632;51.276;7.116;2023-08-31T07:17:19;11.70;99.90
20946;DHT22;10632;51.276;7.116;2023-08-31T07:19:46;11.80;99.90
20946;DHT22;10632;51.276;7.116;2023-08-31T07:22:13;11.70;99.90
20946;DHT22;10632;51.276;7.116;2023-08-31T07:24:40;11.80;99.90
20946;DHT22;10632;51.276;7.116;2023-08-31T07:27:08;11.90;99.90
20946;DHT22;10632;51.276;7.116;2023-08-31T07:29:35;11.90;99.90
20946;DHT22;10632;51.276;7.116;2023-08-31T07:32:02;11.90;99.90
20946;DHT22;10632;51.276;7.116;2023-08-31T07:34:29;11.90;99.90
20946;DHT22;10632;51.276;7.116;2023-08-31T07:36:56;12.00;99.90
20946;DHT22;10632;51.276;7.116;2023-08-31T07:39:23;12.00;99.90
20946;DHT22;10632;51.276;7.116;2023-08-31T07:41:50;12.10;99.90
20946;DHT22;10632;51.276;7.116;2023-08-31T07:44:18;12.10;99.90
20946;DHT22;10632;51.276;7.116;2023-08-31T07:46:45;12.20;99.90
20946;DHT22;10632;51.276;7.116;2023-08-31T07:49:12;12.20;99.90
20946;DHT22;10632;51.276;7.116;2023-08-31T07:51:39;12.20;99.90
20946;DHT22;10632;51.276;7.116;2023-08-31T07:54:06;12.20;99.90
20946;DHT22;10632;51.276;7.116;2023-08-31T07:56:33;12.30;99.90
20946;DHT22;10632;51.276;7.116;2023-08-31T07:59:00;12.30;99.90
20946;DHT22;10632;51.276;7.116;2023-08-31T08:01:28;12.40;99.90
20946;DHT22;10632;51.276;7.116;2023-08-31T08:03:55;12.50;99.90
20946;DHT22;10632;51.276;7.116;2023-08-31T08:06:22;12.50;99.90
20946;DHT22;10632;51.276;7.116;2023-08-31T08:08:49;12.60;99.90
20946;DHT22;10632;51.276;7.116;2023-08-31T08:11:15;12.60;99.90
20946;DHT22;10632;51.276;7.116;2023-08-31T08:13:42;12.70;99.90
20946;DHT22;10632;51.276;7.116;2023-08-31T08:16:09;12.70;99.90
20946;DHT22;10632;51.276;7.116;2023-08-31T08:18:37;12.70;99.90
20946;DHT22;10632;51.276;7.116;2023-08-31T08:21:04;12.80;99.90
20946;DHT22;10632;51.276;7.116;2023-08-31T08:23:31;12.80;99.90
20946;DHT22;10632;51.276;7.116;2023-08-31T08:25:58;12.90;99.90
20946;DHT22;10632;51.276;7.116;2023-08-31T08:28:25;12.90;99.90
20946;DHT22;10632;51.276;7.116;2023-08-31T08:30:53;13.00;99.90
20946;DHT22;10632;51.276;7.116;2023-08-31T08:33:20;13.10;99.90
20946;DHT22;10632;51.276;7.116;2023-08-31T08:35:49;13.10;99.90
20946;DHT22;10632;51.276;7.116;2023-08-31T08:38:15;13.20;99.90
20946;DHT22;10632;51.276;7.116;2023-08-31T08:40:42;13.30;99.90
20946;DHT22;10632;51.276;7.116;2023-08-31T08:43:11;13.30;99.90
20946;DHT22;10632;51.276;7.116;2023-08-31T08:45:43;13.40;99.90
20946;DHT22;10632;51.276;7.116;2023-08-31T08:48:15;13.40;99.90
20946;DHT22;10632;51.276;7.116;2023-08-31T08:50:45;13.50;99.90
20946;DHT22;10632;51.276;7.116;2023-08-31T08:53:14;13.60;99.90
20946;DHT22;10632;51.276;7.116;2023-08-31T08:55:41;13.70;99.90
20946;DHT22;10632;51.276;7.116;2023-08-31T08:58:08;13.70;99.90
20946;DHT22;10632;51.276;7.116;2023-08-31T09:00:35;13.80;99.90
20946;DHT22;10632;51.276;7.116;2023-08-31T09:03:03;13.80;99.90
20946;DHT22;10632;51.276;7.116;2023-08-31T09:05:31;13.90;99.90
20946;DHT22;10632;51.276;7.116;2023-08-31T09:08:04;14.00;99.90
20946;DHT22;10632;51.276;7.116;2023-08-31T09:10:35;14.00;99.90
20946;DHT22;10632;51.276;7.116;2023-08-31T09:13:06;14.10;99.90
20946;DHT22;10632;51.276;7.116;2023-08-31T09:15:41;14.10;99.90
20946;DHT22;10632;51.276;7.116;2023-08-31T09:18:09;14.10;99.90
20946;DHT22;10632;51.276;7.116;2023-08-31T09:20:43;14.20;99.90
20946;DHT22;10632;51.276;7.116;2023-08-31T09:23:11;14.30;99.90
20946;DHT22;10632;51.276;7.116;2023-08-31T09:25:43;14.40;99.90
20946;DHT22;10632;51.276;7.116;2023-08-31T09:28:13;14.50;99.90
20946;DHT22;10632;51.276;7.116;2023-08-31T09:30:45;14.50;99.90
20946;DHT22;10632;51.276;7.116;2023-08-31T09:33:15;14.60;99.90
20946;DHT22;10632;51.276;7.116;2023-08-31T09:35:48;14.70;99.90
20946;DHT22;10632;51.276;7.116;2023-08-31T09:38:15;14.80;99.90
20946;DHT22;10632;51.276;7.116;2023-08-31T09:40:44;14.90;99.90
20946;DHT22;10632;51.276;7.116;2023-08-31T09:43:11;15.00;99.90
20946;DHT22;10632;51.276;7.116;2023-08-31T09:45:38;15.10;99.90
20946;DHT22;10632;51.276;7.116;2023-08-31T09:48:06;15.10;99.90
20946;DHT22;10632;51.276;7.116;2023-08-31T09:50:33;15.20;99.90
20946;DHT22;10632;51.276;7.116;2023-08-31T09:53:02;15.20;99.90
20946;DHT22;10632;51.276;7.116;2023-08-31T09:55:31;15.20;99.90
20946;DHT22;10632;51.276;7.116;2023-08-31T09:58:02;15.20;99.90
20946;DHT22;10632;51.276;7.116;2023-08-31T10:00:30;15.30;99.90
20946;DHT22;10632;51.276;7.116;2023-08-31T10:03:03;15.30;99.90
20946;DHT22;10632;51.276;7.116;2023-08-31T10:05:30;15.40;99.90
20946;DHT22;10632;51.276;7.116;2023-08-31T10:07:58;15.40;99.90
20946;DHT22;10632;51.276;7.116;2023-08-31T10:10:27;15.50;99.90
20946;DHT22;10632;51.276;7.116;2023-08-31T10:12:55;15.60;99.90
20946;DHT22;10632;51.276;7.116;2023-08-31T10:15:28;15.60;99.90
20946;DHT22;10632;51.276;7.116;2023-08-31T10:17:59;15.80;99.90
20946;DHT22;10632;51.276;7.116;2023-08-31T10:20:27;15.80;99.90
20946;DHT22;10632;51.276;7.116;2023-08-31T10:22:57;16.00;99.90
20946;DHT22;10632;51.276;7.116;2023-08-31T10:25:24;16.00;99.90
20946;DHT22;10632;51.276;7.116;2023-08-31T10:27:52;16.00;99.90
20946;DHT22;10632;51.276;7.116;2023-08-31T10:30:27;16.00;99.90
20946;DHT22;10632;51.276;7.116;2023-08-31T10:33:19;15.90;99.90
20946;DHT22;10632;51.276;7.116;2023-08-31T10:35:51;15.80;99.90
20946;DHT22;10632;51.276;7.116;2023-08-31T10:38:27;15.90;99.90
20946;DHT22;10632;51.276;7.116;2023-08-31T10:41:19;16.00;99.90
20946;DHT22;10632;51.276;7.116;2023-08-31T10:43:47;16.30;99.90
20946;DHT22;10632;51.276;7.116;2023-08-31T10:46:18;16.40;99.90
20946;DHT22;10632;51.276;7.116;2023-08-31T10:48:52;16.40;99.90
20946;DHT22;10632;51.276;7.116;2023-08-31T10:51:22;16.40;99.90
20946;DHT22;10632;51.276;7.116;2023-08-31T10:53:49;16.30;99.90
20946;DHT22;10632;51.276;7.116;2023-08-31T10:56:16;16.20;99.90
20946;DHT22;10632;51.276;7.116;2023-08-31T10:58:54;16.20;99.90
20946;DHT22;10632;51.276;7.116;2023-08-31T11:01:56;16.20;99.90
20946;DHT22;10632;51.276;7.116;2023-08-31T11:04:24;16.30;99.90
20946;DHT22;10632;51.276;7.116;2023-08-31T11:07:12;16.60;99.90
20946;DHT22;10632;51.276;7.116;2023-08-31T11:09:39;16.70;99.90
20946;DHT22;10632;51.276;7.116;2023-08-31T11:12:07;16.70;99.90
20946;DHT22;10632;51.276;7.116;2023-08-31T11:14:34;16.60;99.90
20946;DHT22;10632;51.276;7.116;2023-08-31T11:17:02;16.40;99.90
20946;DHT22;10632;51.276;7.116;2023-08-31T11:19:31;16.30;99.90
20946;DHT22;10632;51.276;7.116;2023-08-31T11:21:58;16.20;99.90
20946;DHT22;10632;51.276;7.116;2023-08-31T11:24:26;16.00;99.90
20946;DHT22;10632;51.276;7.116;2023-08-31T11:26:53;15.90;99.90
20946;DHT22;10632;51.276;7.116;2023-08-31T11:29:21;15.80;99.90
20946;DHT22;10632;51.276;7.116;2023-08-31T11:31:47;15.80;99.90
20946;DHT22;10632;51.276;7.116;2023-08-31T11:34:17;15.80;99.90
20946;DHT22;10632;51.276;7.116;2023-08-31T11:36:46;15.80;99.90
20946;DHT22;10632;51.276;7.116;2023-08-31T11:39:13;15.80;99.90
20946;DHT22;10632;51.276;7.116;2023-08-31T11:41:41;15.80;99.90
20946;DHT22;10632;51.276;7.116;2023-08-31T11:44:12;15.70;99.90
20946;DHT22;10632;51.276;7.116;2023-08-31T11:46:40;15.70;99.90
20946;DHT22;10632;51.276;7.116;2023-08-31T11:49:08;15.80;99.90
20946;DHT22;10632;51.276;7.116;2023-08-31T11:51:39;16.10;99.90
20946;DHT22;10632;51.276;7.116;2023-08-31T11:54:06;16.30;99.90
20946;DHT22;10632;51.276;7.116;2023-08-31T11:56:40;16.60;99.90
20946;DHT22;10632;51.276;7.116;2023-08-31T11:59:09;16.90;99.90
20946;DHT22;10632;51.276;7.116;2023-08-31T12:01:40;17.00;99.90
20946;DHT22;10632;51.276;7.116;2023-08-31T12:04:12;17.10;99.90
20946;DHT22;10632;51.276;7.116;2023-08-31T12:06:41;17.10;99.90
20946;DHT22;10632;51.276;7.116;2023-08-31T12:09:09;17.10;99.90
20946;DHT22;10632;51.276;7.116;2023-08-31T12:11:36;17.10;99.90
20946;DHT22;10632;51.276;7.116;2023-08-31T12:14:17;17.20;99.90
20946;DHT22;10632;51.276;7.116;2023-08-31T12:16:44;17.20;99.90
20946;DHT22;10632;51.276;7.116;2023-08-31T12:19:11;17.10;99.90
20946;DHT22;10632;51.276;7.116;2023-08-31T12:21:38;17.10;99.90
20946;DHT22;10632;51.276;7.116;2023-08-31T12:24:07;16.90;99.90
20946;DHT22;10632;51.276;7.116;2023-08-31T12:26:34;16.70;99.90
20946;DHT22;10632;51.276;7.116;2023-08-31T12:29:02;16.50;99.90
20946;DHT22;10632;51.276;7.116;2023-08-31T12:31:30;16.30;99.90
20946;DHT22;10632;51.276;7.116;2023-08-31T12:33:57;16.10;99.90
20946;DHT22;10632;51.276;7.116;2023-08-31T12:36:25;15.90;99.90
20946;DHT22;10632;51.276;7.116;2023-08-31T12:38:52;15.70;99.90
20946;DHT22;10632;51.276;7.116;2023-08-31T12:41:20;15.50;99.90
20946;DHT22;10632;51.276;7.116;2023-08-31T12:43:47;15.30;99.90
20946;DHT22;10632;51.276;7.116;2023-08-31T12:46:14;15.20;99.90
20946;DHT22;10632;51.276;7.116;2023-08-31T12:48:42;15.10;99.90
20946;DHT22;10632;51.276;7.116;2023-08-31T12:51:09;15.20;99.90
20946;DHT22;10632;51.276;7.116;2023-08-31T12:53:39;15.30;99.90
20946;DHT22;10632;51.276;7.116;2023-08-31T12:56:06;15.50;99.90
20946;DHT22;10632;51.276;7.116;2023-08-31T12:58:34;15.70;99.90
20946;DHT22;10632;51.276;7.116;2023-08-31T13:01:01;16.00;99.90
20946;DHT22;10632;51.276;7.116;2023-08-31T13:03:28;16.30;99.90
20946;DHT22;10632;51.276;7.116;2023-08-31T13:05:55;16.50;99.90
20946;DHT22;10632;51.276;7.116;2023-08-31T13:08:23;16.70;99.90
20946;DHT22;10632;51.276;7.116;2023-08-31T13:10:53;16.90;99.90
20946;DHT22;10632;51.276;7.116;2023-08-31T13:13:20;17.10;99.90
20946;DHT22;10632;51.276;7.116;2023-08-31T13:15:49;17.20;99.90
20946;DHT22;10632;51.276;7.116;2023-08-31T13:18:16;17.30;99.90
20946;DHT22;10632;51.276;7.116;2023-08-31T13:20:49;17.50;99.90
20946;DHT22;10632;51.276;7.116;2023-08-31T13:23:16;17.60;99.90
20946;DHT22;10632;51.276;7.116;2023-08-31T13:25:43;17.60;99.90
20946;DHT22;10632;51.276;7.116;2023-08-31T13:28:10;17.70;99.90
20946;DHT22;10632;51.276;7.116;2023-08-31T13:30:36;17.80;99.90
20946;DHT22;10632;51.276;7.116;2023-08-31T13:33:05;17.80;99.90
20946;DHT22;10632;51.276;7.116;2023-08-31T13:35:33;17.70;99.90
20946;DHT22;10632;51.276;7.116;2023-08-31T13:38:00;17.70;99.90
20946;DHT22;10632;51.276;7.116;2023-08-31T13:40:26;17.80;99.90
20946;DHT22;10632;51.276;7.116;2023-08-31T13:42:55;17.90;99.90
20946;DHT22;10632;51.276;7.116;2023-08-31T13:45:25;18.00;99.90
20946;DHT22;10632;51.276;7.116;2023-08-31T13:47:52;18.10;99.90
20946;DHT22;10632;51.276;7.116;2023-08-31T13:50:20;18.20;99.90
20946;DHT22;10632;51.276;7.116;2023-08-31T13:52:47;18.20;99.90
20946;DHT22;10632;51.276;7.116;2023-08-31T13:55:14;18.10;99.90
20946;DHT22;10632;51.276;7.116;2023-08-31T13:57:41;18.10;99.90
20946;DHT22;10632;51.276;7.116;2023-08-31T14:00:09;18.00;99.90
20946;DHT22;10632;51.276;7.116;2023-08-31T14:02:36;17.80;99.90
20946;DHT22;10632;51.276;7.116;2023-08-31T14:05:04;17.80;99.90
20946;DHT22;10632;51.276;7.116;2023-08-31T14:07:33;17.70;99.90
20946;DHT22;10632;51.276;7.116;2023-08-31T14:10:01;17.70;99.90
20946;DHT22;10632;51.276;7.116;2023-08-31T14:12:28;17.60;99.90
20946;DHT22;10632;51.276;7.116;2023-08-31T14:14:55;17.50;99.90
20946;DHT22;10632;51.276;7.116;2023-08-31T14:17:23;17.40;99.90
20946;DHT22;10632;51.276;7.116;2023-08-31T14:19:50;17.30;99.90
20946;DHT22;10632;51.276;7.116;2023-08-31T14:22:16;17.30;99.90
20946;DHT22;10632;51.276;7.116;2023-08-31T14:24:45;17.30;99.90
20946;DHT22;10632;51.276;7.116;2023-08-31T14:27:12;17.20;99.90
20946;DHT22;10632;51.276;7.116;2023-08-31T14:29:38;17.30;99.90
20946;DHT22;10632;51.276;7.116;2023-08-31T14:32:05;17.30;99.90
20946;DHT22;10632;51.276;7.116;2023-08-31T14:34:32;17.40;99.90
20946;DHT22;10632;51.276;7.116;2023-08-31T14:36:59;17.50;99.90
20946;DHT22;10632;51.276;7.116;2023-08-31T14:39:26;17.50;99.90
20946;DHT22;10632;51.276;7.116;2023-08-31T14:41:56;17.70;99.90
20946;DHT22;10632;51.276;7.116;2023-08-31T14:44:23;17.70;99.90
20946;DHT22;10632;51.276;7.116;2023-08-31T14:46:51;17.80;99.90
20946;DHT22;10632;51.276;7.116;2023-08-31T14:49:18;17.80;99.90
20946;DHT22;10632;51.276;7.116;2023-08-31T14:51:45;17.80;99.90
20946;DHT22;10632;51.276;7.116;2023-08-31T14:54:11;17.80;99.90
20946;DHT22;10632;51.276;7.116;2023-08-31T14:56:38;17.80;99.90
20946;DHT22;10632;51.276;7.116;2023-08-31T14:59:06;17.80;99.90
20946;DHT22;10632;51.276;7.116;2023-08-31T15:01:35;17.80;99.90
20946;DHT22;10632;51.276;7.116;2023-08-31T15:04:04;17.70;99.90
20946;DHT22;10632;51.276;7.116;2023-08-31T15:06:31;17.60;99.90
20946;DHT22;10632;51.276;7.116;2023-08-31T15:08:58;17.50;99.90
20946;DHT22;10632;51.276;7.116;2023-08-31T15:11:26;17.40;99.90
20946;DHT22;10632;51.276;7.116;2023-08-31T15:13:53;17.30;99.90
20946;DHT22;10632;51.276;7.116;2023-08-31T15:16:21;17.30;99.90
20946;DHT22;10632;51.276;7.116;2023-08-31T15:18:48;17.20;99.90
20946;DHT22;10632;51.276;7.116;2023-08-31T15:21:15;17.10;99.90
20946;DHT22;10632;51.276;7.116;2023-08-31T15:23:42;17.00;99.90
20946;DHT22;10632;51.276;7.116;2023-08-31T15:26:10;16.80;99.90
20946;DHT22;10632;51.276;7.116;2023-08-31T15:28:38;16.60;99.90
20946;DHT22;10632;51.276;7.116;2023-08-31T15:31:05;16.40;99.90
20946;DHT22;10632;51.276;7.116;2023-08-31T15:33:34;16.30;99.90
20946;DHT22;10632;51.276;7.116;2023-08-31T15:36:04;16.10;99.90